createdAt,value
2019-04-10T00:00:39.077Z,46.30
2019-04-10T00:03:06.164Z,46.50
2019-04-10T00:05:33.916Z,46.40
2019-04-10T00:08:00.471Z,46.40
2019-04-10T00:10:27.747Z,46.40
2019-04-10T00:12:56.124Z,46.50
2019-04-10T00:15:22.842Z,46.70
2019-04-10T00:17:49.299Z,47.40
2019-04-10T00:20:16.287Z,46.60
2019-04-10T00:22:42.684Z,46.80
2019-04-10T00:25:10.578Z,46.90
2019-04-10T00:27:36.943Z,46.70
2019-04-10T00:30:05.162Z,46.70
2019-04-10T00:32:32.129Z,46.80
2019-04-10T00:34:58.641Z,46.60
2019-04-10T00:37:28.716Z,46.60
2019-04-10T00:39:53.142Z,46.60
2019-04-10T00:42:19.474Z,46.70
2019-04-10T00:44:45.973Z,46.60
2019-04-10T00:47:12.872Z,47.60
2019-04-10T00:49:39.936Z,48.00
2019-04-10T00:52:06.430Z,47.90
2019-04-10T00:54:33.056Z,47.80
2019-04-10T00:56:59.504Z,47.80
2019-04-10T00:59:26.192Z,47.90
2019-04-10T01:01:52.569Z,48.10
2019-04-10T01:04:18.899Z,48.00
2019-04-10T01:06:46.037Z,47.90
2019-04-10T01:09:13.194Z,48.10
2019-04-10T01:11:39.521Z,48.10
2019-04-10T01:14:05.919Z,48.30
2019-04-10T01:16:33.273Z,48.10
2019-04-10T01:18:59.955Z,48.10
2019-04-10T01:21:26.399Z,48.00
2019-04-10T01:23:53.225Z,48.30
2019-04-10T01:26:19.695Z,48.50
2019-04-10T01:28:46.917Z,48.20
2019-04-10T01:31:13.550Z,48.20
2019-04-10T01:33:40.924Z,48.30
2019-04-10T01:36:07.443Z,48.30
2019-04-10T01:38:33.764Z,48.40
2019-04-10T01:41:00.100Z,48.40
2019-04-10T01:43:26.648Z,48.30
2019-04-10T01:45:53.663Z,48.40
2019-04-10T01:48:19.977Z,48.60
2019-04-10T01:50:46.496Z,48.50
2019-04-10T01:53:13.394Z,48.60
2019-04-10T01:55:40.842Z,48.80
2019-04-10T01:58:09.227Z,48.60
2019-04-10T02:00:37.479Z,48.60
2019-04-10T02:03:03.937Z,48.80
2019-04-10T02:05:32.435Z,48.80
2019-04-10T02:08:06.457Z,49.10
2019-04-10T02:10:27.919Z,48.90
2019-04-10T02:12:54.758Z,49.30
2019-04-10T02:15:21.730Z,49.10
2019-04-10T02:17:48.706Z,48.90
2019-04-10T02:20:15.704Z,49.00
2019-04-10T02:22:42.058Z,49.00
2019-04-10T02:25:08.765Z,49.00
2019-04-10T02:27:35.356Z,49.20
2019-04-10T02:30:05.163Z,49.20
2019-04-10T02:32:32.339Z,49.10
2019-04-10T02:34:58.824Z,49.20
2019-04-10T02:37:25.632Z,49.50
2019-04-10T02:39:57.818Z,49.30
2019-04-10T02:42:22.447Z,49.40
2019-04-10T02:44:50.416Z,49.40
2019-04-10T02:47:19.009Z,49.50
2019-04-10T02:49:46.872Z,49.50
2019-04-10T02:52:14.674Z,49.30
2019-04-10T02:54:41.866Z,49.40
2019-04-10T02:57:09.449Z,49.50
2019-04-10T02:59:37.504Z,49.40
2019-04-10T03:02:04.268Z,50.00
2019-04-10T03:04:31.089Z,49.40
2019-04-10T03:06:57.749Z,49.30
2019-04-10T03:09:37.134Z,49.20
2019-04-10T03:11:52.107Z,49.00
2019-04-10T03:14:18.956Z,49.10
2019-04-10T03:16:46.108Z,49.40
2019-04-10T03:19:12.310Z,49.30
2019-04-10T03:21:39.546Z,49.30
2019-04-10T03:24:06.286Z,49.40
2019-04-10T03:26:33.986Z,49.40
2019-04-10T03:29:00.417Z,49.40
2019-04-10T03:31:27.741Z,49.40
2019-04-10T03:34:08.532Z,49.20
2019-04-10T03:36:39.769Z,49.20
2019-04-10T03:39:07.909Z,49.10
2019-04-10T03:41:35.311Z,49.10
2019-04-10T03:44:02.559Z,49.20
2019-04-10T03:46:29.743Z,49.10
2019-04-10T03:48:57.677Z,49.30
2019-04-10T03:51:24.838Z,49.40
2019-04-10T03:53:51.367Z,49.30
2019-04-10T03:56:18.029Z,49.40
2019-04-10T03:58:44.437Z,49.20
2019-04-10T04:01:10.990Z,49.30
2019-04-10T04:03:37.508Z,49.90
2019-04-10T04:06:03.748Z,49.30
2019-04-10T04:08:30.067Z,49.20
2019-04-10T04:10:57.267Z,49.20
2019-04-10T04:13:23.763Z,48.60
2019-04-10T04:15:50.591Z,49.20
2019-04-10T04:18:17.244Z,49.20
2019-04-10T04:20:43.661Z,49.10
2019-04-10T04:23:11.639Z,49.00
2019-04-10T04:25:38.670Z,49.00
2019-04-10T04:28:05.232Z,49.00
2019-04-10T04:30:32.099Z,49.00
2019-04-10T04:32:58.491Z,49.00
2019-04-10T04:35:25.688Z,49.00
2019-04-10T04:37:52.679Z,49.00
2019-04-10T04:40:19.705Z,48.90
2019-04-10T04:42:47.067Z,48.90
2019-04-10T04:45:13.593Z,48.90
2019-04-10T04:47:39.951Z,48.80
2019-04-10T04:50:07.610Z,48.90
2019-04-10T04:52:34.983Z,49.00
2019-04-10T04:55:01.954Z,49.00
2019-04-10T04:57:28.799Z,49.00
2019-04-10T04:59:55.288Z,49.00
2019-04-10T05:02:21.960Z,49.20
2019-04-10T05:04:49.340Z,49.30
2019-04-10T05:07:16.806Z,49.40
2019-04-10T05:09:43.980Z,49.50
2019-04-10T05:12:11.131Z,49.50
2019-04-10T05:14:37.840Z,49.70
2019-04-10T05:17:05.991Z,49.70
2019-04-10T05:19:32.484Z,49.70
2019-04-10T05:21:59.511Z,49.90
2019-04-10T05:24:25.964Z,49.70
2019-04-10T05:26:53.484Z,49.80
2019-04-10T05:29:19.856Z,49.80
2019-04-10T05:31:46.815Z,49.90
2019-04-10T05:34:13.476Z,49.90
2019-04-10T05:36:39.974Z,50.00
2019-04-10T05:39:06.817Z,49.90
2019-04-10T05:41:33.564Z,50.00
2019-04-10T05:44:00.705Z,49.40
2019-04-10T05:46:28.247Z,49.90
2019-04-10T05:48:55.860Z,49.90
2019-04-10T05:51:23.259Z,49.80
2019-04-10T05:53:52.277Z,50.00
2019-04-10T05:56:19.020Z,50.40
2019-04-10T05:58:45.489Z,50.80
2019-04-10T06:01:11.980Z,51.40
2019-04-10T06:03:38.716Z,51.60
2019-04-10T06:06:06.187Z,51.70
2019-04-10T06:08:33.345Z,51.60
2019-04-10T06:11:00.226Z,51.70
2019-04-10T06:13:27.699Z,51.50
2019-04-10T06:15:55.115Z,51.50
2019-04-10T06:18:21.515Z,51.20
2019-04-10T06:20:49.308Z,50.80
2019-04-10T06:23:15.701Z,49.90
2019-04-10T06:25:43.393Z,49.90
2019-04-10T06:28:10.035Z,49.90
2019-04-10T06:30:36.384Z,49.80
2019-04-10T06:33:04.117Z,49.00
2019-04-10T06:35:30.537Z,48.80
2019-04-10T06:37:56.905Z,48.00
2019-04-10T06:40:25.792Z,47.90
2019-04-10T06:42:53.941Z,47.60
2019-04-10T06:45:20.161Z,47.00
2019-04-10T06:47:46.727Z,46.30
2019-04-10T06:50:13.435Z,46.20
2019-04-10T06:52:40.929Z,46.30
2019-04-10T06:55:07.636Z,46.40
2019-04-10T06:57:46.861Z,46.40
2019-04-10T07:00:06.377Z,46.40
2019-04-10T07:02:34.624Z,46.10
2019-04-10T07:05:05.716Z,46.00
2019-04-10T07:07:43.358Z,46.00
2019-04-10T07:09:58.463Z,46.20
2019-04-10T07:12:29.782Z,46.30
2019-04-10T07:14:55.699Z,46.40
2019-04-10T07:17:21.988Z,46.70
2019-04-10T07:19:49.277Z,46.90
2019-04-10T07:22:17.417Z,47.10
2019-04-10T07:24:44.493Z,47.20
2019-04-10T07:27:11.850Z,47.30
2019-04-10T07:29:38.406Z,47.80
2019-04-10T07:32:07.851Z,47.30
2019-04-10T07:34:34.051Z,47.50
2019-04-10T07:37:00.441Z,47.50
2019-04-10T07:39:29.500Z,47.50
2019-04-10T07:41:55.722Z,47.50
2019-04-10T07:44:22.163Z,47.30
2019-04-10T07:46:48.837Z,48.20
2019-04-10T07:49:17.658Z,47.50
2019-04-10T07:51:44.620Z,47.50
2019-04-10T07:54:12.010Z,47.60
2019-04-10T07:56:39.650Z,47.60
2019-04-10T07:59:06.700Z,47.60
2019-04-10T08:01:33.430Z,47.20
2019-04-10T08:03:59.802Z,47.20
2019-04-10T08:06:26.133Z,46.60
2019-04-10T08:08:53.326Z,46.30
2019-04-10T08:11:19.822Z,46.20
2019-04-10T08:13:47.079Z,46.30
2019-04-10T08:16:13.500Z,46.40
2019-04-10T08:18:39.829Z,46.70
2019-04-10T08:21:07.135Z,46.30
2019-04-10T08:23:33.803Z,45.60
2019-04-10T08:26:00.212Z,45.50
2019-04-10T08:28:29.164Z,45.20
2019-04-10T08:30:54.760Z,44.50
2019-04-10T08:33:21.825Z,44.70
2019-04-10T08:35:49.453Z,44.80
2019-04-10T08:38:15.901Z,45.10
2019-04-10T08:40:42.233Z,45.30
2019-04-10T08:43:08.830Z,45.20
2019-04-10T08:45:44.196Z,44.80
2019-04-10T08:48:03.629Z,44.70
2019-04-10T08:50:30.269Z,44.50
2019-04-10T08:52:56.545Z,44.10
2019-04-10T08:55:23.949Z,44.60
2019-04-10T08:57:50.435Z,43.90
2019-04-10T09:00:16.868Z,43.70
2019-04-10T09:02:44.377Z,43.80
2019-04-10T09:05:11.283Z,43.40
2019-04-10T09:07:38.208Z,43.50
2019-04-10T09:10:06.388Z,43.70
2019-04-10T09:12:33.502Z,43.50
2019-04-10T09:15:01.534Z,43.20
2019-04-10T09:17:28.168Z,42.70
2019-04-10T09:19:54.796Z,42.70
2019-04-10T09:22:21.215Z,41.90
2019-04-10T09:24:48.780Z,42.40
2019-04-10T09:27:15.634Z,42.10
2019-04-10T09:29:42.414Z,42.30
2019-04-10T09:32:08.895Z,42.10
2019-04-10T09:34:37.970Z,42.40
2019-04-10T09:37:03.930Z,42.20
2019-04-10T09:39:31.658Z,42.40
2019-04-10T09:41:58.718Z,41.40
2019-04-10T09:44:25.690Z,41.50
2019-04-10T09:46:53.475Z,41.40
2019-04-10T09:49:31.955Z,41.10
2019-04-10T09:51:48.216Z,42.10
2019-04-10T09:54:15.282Z,41.20
2019-04-10T09:56:42.024Z,40.60
2019-04-10T09:59:08.289Z,40.40
2019-04-10T10:01:35.826Z,40.60
2019-04-10T10:04:02.684Z,40.50
2019-04-10T10:06:33.502Z,40.70
2019-04-10T10:08:58.465Z,41.10
2019-04-10T10:11:24.816Z,41.00
2019-04-10T10:13:52.176Z,40.80
2019-04-10T10:16:38.472Z,40.40
2019-04-10T10:19:05.706Z,39.30
2019-04-10T10:21:32.575Z,40.40
2019-04-10T10:24:00.276Z,40.70
2019-04-10T10:26:28.068Z,40.40
2019-04-10T10:28:54.619Z,40.70
2019-04-10T10:31:22.110Z,40.40
2019-04-10T10:33:48.580Z,40.70
2019-04-10T10:36:15.850Z,40.00
2019-04-10T10:38:43.268Z,40.20
2019-04-10T10:41:09.922Z,40.60
2019-04-10T10:43:37.845Z,40.40
2019-04-10T10:46:04.119Z,40.20
2019-04-10T10:48:31.584Z,39.90
2019-04-10T10:50:58.315Z,39.80
2019-04-10T10:53:24.650Z,40.00
2019-04-10T10:55:51.141Z,39.60
2019-04-10T10:58:17.735Z,39.90
2019-04-10T11:00:44.241Z,40.00
2019-04-10T11:03:10.581Z,40.20
2019-04-10T11:05:37.143Z,39.70
2019-04-10T11:08:05.381Z,39.00
2019-04-10T11:10:31.824Z,39.00
2019-04-10T11:12:58.499Z,39.10
2019-04-10T11:15:26.129Z,39.30
2019-04-10T11:17:53.859Z,39.00
2019-04-10T11:20:20.464Z,39.00
2019-04-10T11:22:47.402Z,38.90
2019-04-10T11:25:13.901Z,38.40
2019-04-10T11:27:42.047Z,38.40
2019-04-10T11:30:10.141Z,38.30
2019-04-10T11:32:38.048Z,37.70
2019-04-10T11:35:06.711Z,37.90
2019-04-10T11:37:41.159Z,38.60
2019-04-10T11:40:04.682Z,38.30
2019-04-10T11:42:32.180Z,38.20
2019-04-10T11:44:59.293Z,37.70
2019-04-10T11:47:26.745Z,38.20
2019-04-10T11:49:53.741Z,38.30
2019-04-10T11:52:31.176Z,37.40
2019-04-10T11:54:50.013Z,37.80
2019-04-10T11:57:19.761Z,37.80
2019-04-10T11:59:47.332Z,36.80
2019-04-10T12:02:14.273Z,36.90
2019-04-10T12:07:09.760Z,37.80
2019-04-10T12:12:05.838Z,37.70
2019-04-10T12:14:32.256Z,37.40
2019-04-10T12:16:58.991Z,37.30
2019-04-10T12:19:25.433Z,37.70
2019-04-10T12:21:51.967Z,36.40
2019-04-10T12:24:18.402Z,36.50
2019-04-10T12:26:47.760Z,36.20
2019-04-10T12:29:14.332Z,36.40
2019-04-10T12:31:41.886Z,36.10
2019-04-10T12:34:08.835Z,34.70
2019-04-10T12:36:36.208Z,34.40
2019-04-10T12:39:06.105Z,34.70
2019-04-10T12:41:33.199Z,35.10
2019-04-10T12:43:59.787Z,34.30
2019-04-10T12:46:26.779Z,34.80
2019-04-10T12:48:54.915Z,35.20
2019-04-10T12:51:21.547Z,34.70
2019-04-10T12:53:48.081Z,35.00
2019-04-10T12:56:15.688Z,35.00
2019-04-10T12:58:42.611Z,34.00
2019-04-10T13:01:09.934Z,34.20
2019-04-10T13:03:36.269Z,34.40
2019-04-10T13:06:03.522Z,34.60
2019-04-10T13:08:47.500Z,34.60
2019-04-10T13:10:58.401Z,35.10
2019-04-10T13:13:24.861Z,35.50
2019-04-10T13:15:51.897Z,34.60
2019-04-10T13:18:18.499Z,35.00
2019-04-10T13:20:46.111Z,34.40
2019-04-10T13:23:14.843Z,34.20
2019-04-10T13:25:42.702Z,32.70
2019-04-10T13:28:09.802Z,32.50
2019-04-10T13:30:46.863Z,33.30
2019-04-10T13:33:06.402Z,33.60
2019-04-10T13:35:34.348Z,33.80
2019-04-10T13:38:01.086Z,33.60
2019-04-10T13:40:27.821Z,33.70
2019-04-10T13:42:54.344Z,33.20
2019-04-10T13:45:21.456Z,33.10
2019-04-10T13:47:48.504Z,33.60
2019-04-10T13:50:16.848Z,33.10
2019-04-10T13:52:45.283Z,32.90
2019-04-10T13:55:12.002Z,32.60
2019-04-10T13:57:39.204Z,32.30
2019-04-10T14:00:09.280Z,33.00
2019-04-10T14:02:37.528Z,32.30
2019-04-10T14:05:07.409Z,32.10
2019-04-10T14:07:34.302Z,32.20
2019-04-10T14:10:00.835Z,32.10
2019-04-10T14:12:27.269Z,31.90
2019-04-10T14:14:53.598Z,32.60
2019-04-10T14:17:20.144Z,32.70
2019-04-10T14:19:47.812Z,32.80
2019-04-10T14:22:14.272Z,32.30
2019-04-10T14:24:46.025Z,32.10
2019-04-10T14:27:18.270Z,31.60
2019-04-10T14:29:44.995Z,32.30
2019-04-10T14:32:13.479Z,32.00
2019-04-10T14:34:40.793Z,32.00
2019-04-10T14:37:09.544Z,32.00
2019-04-10T14:39:35.990Z,31.80
2019-04-10T14:42:02.808Z,31.60
2019-04-10T14:44:29.121Z,31.30
2019-04-10T14:46:55.450Z,31.20
2019-04-10T14:49:21.805Z,31.40
2019-04-10T14:51:48.457Z,31.40
2019-04-10T14:54:15.586Z,31.00
2019-04-10T14:56:42.106Z,31.60
2019-04-10T15:01:40.725Z,31.30
2019-04-10T15:04:07.339Z,31.40
2019-04-10T15:06:34.339Z,31.50
2019-04-10T15:09:00.883Z,31.40
2019-04-10T15:11:28.805Z,31.80
2019-04-10T15:13:55.323Z,31.50
2019-04-10T15:16:21.654Z,31.80
2019-04-10T15:18:47.983Z,31.80
2019-04-10T15:21:14.461Z,31.60
2019-04-10T15:23:41.177Z,31.70
2019-04-10T15:26:08.042Z,30.70
2019-04-10T15:28:34.442Z,31.10
2019-04-10T15:31:01.401Z,31.40
2019-04-10T15:33:28.959Z,31.50
2019-04-10T15:35:55.460Z,31.50
2019-04-10T15:38:22.012Z,31.70
2019-04-10T15:40:48.444Z,32.20
2019-04-10T15:43:14.745Z,32.60
2019-04-10T15:45:41.528Z,32.00
2019-04-10T15:48:08.321Z,31.10
2019-04-10T15:50:34.779Z,30.60
2019-04-10T15:53:02.069Z,30.40
2019-04-10T15:55:29.950Z,31.00
2019-04-10T15:57:59.321Z,32.50
2019-04-10T16:00:25.348Z,32.00
2019-04-10T16:02:53.804Z,31.80
2019-04-10T16:05:19.942Z,32.20
2019-04-10T16:07:46.957Z,32.20
2019-04-10T16:10:28.673Z,31.90
2019-04-10T16:12:57.583Z,31.80
2019-04-10T16:15:25.089Z,31.60
2019-04-10T16:17:54.611Z,31.20
2019-04-10T16:20:23.004Z,31.20
2019-04-10T16:22:54.258Z,31.40
2019-04-10T16:25:25.664Z,31.10
2019-04-10T16:27:51.934Z,31.40
2019-04-10T16:30:20.113Z,31.60
2019-04-10T16:32:46.739Z,31.20
2019-04-10T16:35:13.932Z,31.10
2019-04-10T16:37:40.343Z,30.90
2019-04-10T16:40:08.613Z,30.30
2019-04-10T16:42:35.304Z,30.40
2019-04-10T16:45:03.902Z,30.70
2019-04-10T16:47:30.327Z,30.40
2019-04-10T16:49:57.239Z,30.10
2019-04-10T16:52:25.012Z,30.70
2019-04-10T16:54:51.461Z,30.60
2019-04-10T16:57:18.489Z,30.30
2019-04-10T16:59:44.993Z,30.50
2019-04-10T17:02:11.480Z,30.20
2019-04-10T17:04:37.948Z,30.30
2019-04-10T17:07:04.440Z,30.70
2019-04-10T17:09:32.352Z,30.80
2019-04-10T17:11:59.086Z,31.00
2019-04-10T17:14:25.390Z,31.00
2019-04-10T17:16:51.753Z,30.60
2019-04-10T17:19:18.081Z,30.10
2019-04-10T17:21:44.655Z,29.80
2019-04-10T17:24:11.233Z,30.30
2019-04-10T17:26:39.103Z,30.80
2019-04-10T17:29:05.553Z,30.70
2019-04-10T17:31:32.887Z,30.50
2019-04-10T17:34:00.523Z,31.10
2019-04-10T17:36:27.328Z,30.60
2019-04-10T17:38:55.130Z,30.40
2019-04-10T17:41:21.937Z,30.30
2019-04-10T17:43:49.467Z,30.90
2019-04-10T17:46:15.912Z,31.00
2019-04-10T17:48:42.200Z,31.30
2019-04-10T17:51:09.908Z,31.30
2019-04-10T17:53:37.452Z,31.00
2019-04-10T17:56:04.502Z,31.10
2019-04-10T17:58:31.667Z,31.20
2019-04-10T18:01:00.247Z,31.60
2019-04-10T18:03:39.648Z,31.70
2019-04-10T18:05:55.214Z,31.70
2019-04-10T18:08:24.194Z,31.60
2019-04-10T18:10:52.619Z,31.60
2019-04-10T18:13:18.344Z,31.90
2019-04-10T18:15:46.225Z,32.00
2019-04-10T18:18:13.652Z,32.20
2019-04-10T18:20:42.963Z,32.30
2019-04-10T18:23:09.428Z,31.50
2019-04-10T18:25:36.173Z,32.40
2019-04-10T18:28:03.393Z,32.50
2019-04-10T18:30:31.672Z,32.60
2019-04-10T18:32:58.226Z,33.40
2019-04-10T18:35:24.819Z,33.40
2019-04-10T18:37:51.131Z,33.40
2019-04-10T18:40:17.498Z,33.40
2019-04-10T18:42:43.833Z,33.60
2019-04-10T18:45:13.389Z,33.40
2019-04-10T18:47:39.983Z,33.50
2019-04-10T18:50:07.781Z,33.70
2019-04-10T18:52:35.092Z,33.80
2019-04-10T18:55:01.743Z,33.90
2019-04-10T18:57:28.028Z,34.00
2019-04-10T19:00:13.029Z,34.30
2019-04-10T19:02:53.594Z,34.20
2019-04-10T19:05:24.939Z,34.40
2019-04-10T19:07:51.492Z,34.40
2019-04-10T19:10:18.239Z,34.80
2019-04-10T19:12:45.311Z,34.50
2019-04-10T19:15:12.748Z,34.60
2019-04-10T19:17:40.248Z,34.60
2019-04-10T19:20:08.921Z,35.00
2019-04-10T19:22:36.979Z,35.00
2019-04-10T19:25:04.508Z,35.00
2019-04-10T19:27:31.890Z,34.90
2019-04-10T19:29:59.090Z,35.00
2019-04-10T19:32:30.005Z,35.10
2019-04-10T19:34:55.474Z,35.20
2019-04-10T19:37:22.818Z,35.30
2019-04-10T19:39:49.394Z,35.30
2019-04-10T19:42:17.359Z,35.40
2019-04-10T19:44:43.773Z,35.60
2019-04-10T19:47:10.527Z,35.70
2019-04-10T19:49:37.224Z,35.80
2019-04-10T19:52:05.099Z,36.00
2019-04-10T19:54:31.630Z,36.40
2019-04-10T19:56:59.114Z,36.50
2019-04-10T19:59:25.486Z,36.80
2019-04-10T20:01:52.735Z,37.40
2019-04-10T20:04:19.287Z,37.70
2019-04-10T20:06:46.728Z,38.60
2019-04-10T20:09:14.480Z,39.20
2019-04-10T20:11:45.335Z,39.10
2019-04-10T20:14:08.917Z,39.50
2019-04-10T20:16:35.676Z,39.70
2019-04-10T20:19:03.313Z,40.10
2019-04-10T20:21:30.074Z,40.10
2019-04-10T20:23:56.688Z,39.90
2019-04-10T20:26:23.892Z,40.00
2019-04-10T20:28:50.169Z,40.20
2019-04-10T20:31:19.242Z,40.60
2019-04-10T20:33:45.594Z,40.80
2019-04-10T20:36:12.945Z,41.10
2019-04-10T20:38:40.758Z,41.20
2019-04-10T20:41:07.251Z,40.90
2019-04-10T20:43:33.798Z,41.40
2019-04-10T20:46:00.273Z,41.40
2019-04-10T20:48:26.656Z,41.30
2019-04-10T20:50:52.977Z,41.20
2019-04-10T20:53:20.002Z,41.50
2019-04-10T20:55:46.457Z,41.20
2019-04-10T20:58:13.382Z,41.60
2019-04-10T21:00:41.204Z,41.40
2019-04-10T21:03:07.800Z,41.60
2019-04-10T21:05:34.159Z,41.70
2019-04-10T21:08:00.464Z,41.70
2019-04-10T21:10:29.018Z,41.60
2019-04-10T21:12:58.015Z,41.80
2019-04-10T21:15:23.682Z,42.30
2019-04-10T21:17:50.799Z,42.20
2019-04-10T21:20:18.142Z,42.30
2019-04-10T21:22:45.161Z,42.70
2019-04-10T21:25:11.557Z,42.50
2019-04-10T21:27:37.968Z,42.80
2019-04-10T21:30:19.863Z,42.30
2019-04-10T21:32:48.038Z,43.00
2019-04-10T21:35:16.239Z,43.00
2019-04-10T21:37:42.888Z,43.00
2019-04-10T21:40:10.163Z,43.00
2019-04-10T21:42:37.063Z,43.20
2019-04-10T21:45:05.425Z,43.30
2019-04-10T21:47:31.650Z,44.00
2019-04-10T21:49:57.973Z,43.30
2019-04-10T21:52:27.128Z,43.30
2019-04-10T21:54:57.186Z,43.30
2019-04-10T21:57:22.228Z,43.40
2019-04-10T21:59:49.643Z,43.10
2019-04-10T22:02:17.372Z,43.50
2019-04-10T22:04:43.850Z,43.60
2019-04-10T22:07:12.010Z,43.40
2019-04-10T22:09:43.231Z,43.50
2019-04-10T22:12:22.172Z,43.70
2019-04-10T22:14:39.607Z,43.80
2019-04-10T22:17:08.738Z,43.80
2019-04-10T22:19:35.716Z,44.00
2019-04-10T22:22:04.210Z,43.90
2019-04-10T22:24:31.902Z,44.10
2019-04-10T22:26:58.622Z,44.10
2019-04-10T22:29:25.951Z,43.90
2019-04-10T22:31:53.377Z,44.00
2019-04-10T22:34:19.744Z,44.20
2019-04-10T22:36:47.078Z,43.80
2019-04-10T22:39:17.153Z,44.20
2019-04-10T22:41:43.484Z,44.50
2019-04-10T22:44:10.123Z,44.80
2019-04-10T22:46:36.756Z,44.70
2019-04-10T22:49:04.229Z,44.60
2019-04-10T22:51:30.646Z,45.10
2019-04-10T22:53:57.713Z,45.20
2019-04-10T22:56:25.182Z,45.40
2019-04-10T22:58:51.685Z,45.20
2019-04-10T23:01:18.559Z,45.60
2019-04-10T23:03:45.339Z,45.80
2019-04-10T23:06:11.628Z,45.80
2019-04-10T23:08:38.137Z,46.40
2019-04-10T23:11:05.681Z,46.20
2019-04-10T23:13:32.348Z,46.50
2019-04-10T23:15:59.842Z,46.40
2019-04-10T23:18:26.246Z,46.60
2019-04-10T23:20:52.652Z,46.70
2019-04-10T23:23:19.052Z,46.80
2019-04-10T23:25:46.725Z,46.80
2019-04-10T23:28:13.522Z,47.10
2019-04-10T23:30:39.918Z,47.30
2019-04-10T23:33:06.421Z,47.60
2019-04-10T23:35:33.715Z,47.20
2019-04-10T23:38:01.378Z,47.30
2019-04-10T23:40:27.862Z,47.80
2019-04-10T23:43:05.819Z,47.60
2019-04-10T23:45:22.304Z,47.70
2019-04-10T23:47:48.749Z,48.20
2019-04-10T23:50:16.482Z,48.40
2019-04-10T23:52:42.933Z,48.70
2019-04-10T23:55:10.124Z,48.40
2019-04-10T23:57:37.668Z,48.70
